sensor_id;sensor_type;location;lat;lon;timestamp;P1;durP1;ratioP1;P2;durP2;ratioP2
8735;SDS011;4404;49.308;12.178;2023-07-29T05:32:50;1.10;;;1.00;;
8735;SDS011;4404;49.308;12.178;2023-07-29T05:34:52;1.30;;;1.17;;
8735;SDS011;4404;49.308;12.178;2023-07-29T05:36:55;1.27;;;1.17;;
8735;SDS011;4404;49.308;12.178;2023-07-29T05:38:57;2.10;;;1.53;;
8735;SDS011;4404;49.308;12.178;2023-07-29T05:41:00;3.47;;;2.10;;
8735;SDS011;4404;49.308;12.178;2023-07-29T05:43:02;5.07;;;2.73;;
8735;SDS011;4404;49.308;12.178;2023-07-29T05:45:04;4.33;;;2.37;;
8735;SDS011;4404;49.308;12.178;2023-07-29T05:47:08;4.60;;;2.73;;
8735;SDS011;4404;49.308;12.178;2023-07-29T05:49:12;2.50;;;1.93;;
8735;SDS011;4404;49.308;12.178;2023-07-29T05:51:14;3.67;;;2.07;;
8735;SDS011;4404;49.308;12.178;2023-07-29T05:53:16;1.90;;;1.30;;
8735;SDS011;4404;49.308;12.178;2023-07-29T05:55:20;4.50;;;1.73;;
8735;SDS011;4404;49.308;12.178;2023-07-29T05:57:22;4.93;;;1.73;;
8735;SDS011;4404;49.308;12.178;2023-07-29T05:59:25;9.00;;;2.83;;
8735;SDS011;4404;49.308;12.178;2023-07-29T06:01:29;3.43;;;1.57;;
8735;SDS011;4404;49.308;12.178;2023-07-29T06:03:33;5.00;;;1.83;;
8735;SDS011;4404;49.308;12.178;2023-07-29T06:05:37;2.73;;;1.40;;
8735;SDS011;4404;49.308;12.178;2023-07-29T06:07:40;1.67;;;1.10;;
8735;SDS011;4404;49.308;12.178;2023-07-29T06:09:44;3.43;;;1.57;;
8735;SDS011;4404;49.308;12.178;2023-07-29T06:11:46;6.00;;;2.00;;
8735;SDS011;4404;49.308;12.178;2023-07-29T06:13:48;3.70;;;1.53;;
8735;SDS011;4404;49.308;12.178;2023-07-29T06:15:49;5.00;;;1.87;;
8735;SDS011;4404;49.308;12.178;2023-07-29T06:17:51;3.80;;;1.57;;
8735;SDS011;4404;49.308;12.178;2023-07-29T06:19:54;7.83;;;2.43;;
8735;SDS011;4404;49.308;12.178;2023-07-29T06:21:58;9.87;;;3.00;;
8735;SDS011;4404;49.308;12.178;2023-07-29T06:24:01;9.43;;;2.80;;
8735;SDS011;4404;49.308;12.178;2023-07-29T06:26:04;7.40;;;2.37;;
8735;SDS011;4404;49.308;12.178;2023-07-29T06:28:07;11.80;;;3.27;;
8735;SDS011;4404;49.308;12.178;2023-07-29T06:30:10;15.40;;;4.33;;
8735;SDS011;4404;49.308;12.178;2023-07-29T06:32:12;16.00;;;4.40;;
8735;SDS011;4404;49.308;12.178;2023-07-29T06:34:14;7.60;;;2.40;;
8735;SDS011;4404;49.308;12.178;2023-07-29T06:36:17;11.93;;;3.47;;
8735;SDS011;4404;49.308;12.178;2023-07-29T06:38:20;5.43;;;1.97;;
8735;SDS011;4404;49.308;12.178;2023-07-29T06:40:23;4.20;;;1.60;;
8735;SDS011;4404;49.308;12.178;2023-07-29T06:42:25;2.97;;;1.33;;
8735;SDS011;4404;49.308;12.178;2023-07-29T06:44:26;4.80;;;1.60;;
8735;SDS011;4404;49.308;12.178;2023-07-29T06:46:28;6.30;;;1.87;;
8735;SDS011;4404;49.308;12.178;2023-07-29T06:48:30;10.03;;;2.93;;
8735;SDS011;4404;49.308;12.178;2023-07-29T06:50:33;7.53;;;2.23;;
8735;SDS011;4404;49.308;12.178;2023-07-29T06:52:35;3.13;;;1.30;;
8735;SDS011;4404;49.308;12.178;2023-07-29T06:54:39;3.90;;;1.47;;
8735;SDS011;4404;49.308;12.178;2023-07-29T06:56:41;5.07;;;1.83;;
8735;SDS011;4404;49.308;12.178;2023-07-29T06:58:44;3.60;;;1.40;;
8735;SDS011;4404;49.308;12.178;2023-07-29T07:00:45;4.03;;;1.50;;
8735;SDS011;4404;49.308;12.178;2023-07-29T07:02:47;5.80;;;1.90;;
8735;SDS011;4404;49.308;12.178;2023-07-29T07:04:49;9.83;;;2.90;;
8735;SDS011;4404;49.308;12.178;2023-07-29T07:06:51;4.67;;;1.60;;
8735;SDS011;4404;49.308;12.178;2023-07-29T07:08:54;6.03;;;1.90;;
8735;SDS011;4404;49.308;12.178;2023-07-29T07:10:57;9.40;;;2.67;;
8735;SDS011;4404;49.308;12.178;2023-07-29T07:12:59;9.23;;;2.70;;
8735;SDS011;4404;49.308;12.178;2023-07-29T07:15:02;16.07;;;3.97;;
8735;SDS011;4404;49.308;12.178;2023-07-29T07:17:05;18.20;;;4.53;;
8735;SDS011;4404;49.308;12.178;2023-07-29T07:19:07;14.10;;;3.63;;
8735;SDS011;4404;49.308;12.178;2023-07-29T07:21:09;17.63;;;4.80;;
8735;SDS011;4404;49.308;12.178;2023-07-29T07:23:13;18.30;;;4.73;;
8735;SDS011;4404;49.308;12.178;2023-07-29T07:25:17;13.80;;;3.87;;
8735;SDS011;4404;49.308;12.178;2023-07-29T07:27:21;10.47;;;2.97;;
8735;SDS011;4404;49.308;12.178;2023-07-29T07:29:23;7.33;;;2.20;;
8735;SDS011;4404;49.308;12.178;2023-07-29T07:31:25;5.70;;;1.93;;
8735;SDS011;4404;49.308;12.178;2023-07-29T07:33:27;4.33;;;1.50;;
8735;SDS011;4404;49.308;12.178;2023-07-29T07:35:30;5.50;;;1.87;;
8735;SDS011;4404;49.308;12.178;2023-07-29T07:37:32;7.40;;;2.17;;
8735;SDS011;4404;49.308;12.178;2023-07-29T07:39:34;5.00;;;1.70;;
8735;SDS011;4404;49.308;12.178;2023-07-29T07:41:37;7.53;;;2.37;;
8735;SDS011;4404;49.308;12.178;2023-07-29T07:43:40;3.77;;;1.57;;
8735;SDS011;4404;49.308;12.178;2023-07-29T07:45:42;3.77;;;1.67;;
8735;SDS011;4404;49.308;12.178;2023-07-29T07:47:44;6.80;;;2.37;;
8735;SDS011;4404;49.308;12.178;2023-07-29T07:49:46;3.57;;;1.50;;
8735;SDS011;4404;49.308;12.178;2023-07-29T07:51:51;4.77;;;1.80;;
8735;SDS011;4404;49.308;12.178;2023-07-29T07:53:53;4.87;;;1.83;;
8735;SDS011;4404;49.308;12.178;2023-07-29T07:55:55;2.10;;;1.17;;
8735;SDS011;4404;49.308;12.178;2023-07-29T07:57:57;4.73;;;1.83;;
8735;SDS011;4404;49.308;12.178;2023-07-29T08:00:02;5.30;;;2.03;;
8735;SDS011;4404;49.308;12.178;2023-07-29T08:02:07;6.83;;;2.33;;
8735;SDS011;4404;49.308;12.178;2023-07-29T08:04:09;14.23;;;4.20;;
8735;SDS011;4404;49.308;12.178;2023-07-29T08:06:11;12.87;;;3.70;;
8735;SDS011;4404;49.308;12.178;2023-07-29T08:08:14;13.60;;;9.30;;
8735;SDS011;4404;49.308;12.178;2023-07-29T08:10:17;7.43;;;2.50;;
8735;SDS011;4404;49.308;12.178;2023-07-29T08:12:19;7.47;;;2.53;;
8735;SDS011;4404;49.308;12.178;2023-07-29T08:14:23;12.80;;;4.27;;
8735;SDS011;4404;49.308;12.178;2023-07-29T08:16:27;10.70;;;3.23;;
8735;SDS011;4404;49.308;12.178;2023-07-29T08:18:30;6.23;;;2.13;;
8735;SDS011;4404;49.308;12.178;2023-07-29T08:20:32;3.20;;;1.47;;
8735;SDS011;4404;49.308;12.178;2023-07-29T08:22:34;6.93;;;2.30;;
8735;SDS011;4404;49.308;12.178;2023-07-29T08:24:36;4.40;;;1.77;;
8735;SDS011;4404;49.308;12.178;2023-07-29T08:26:38;2.80;;;1.40;;
8735;SDS011;4404;49.308;12.178;2023-07-29T08:28:39;4.77;;;1.80;;
8735;SDS011;4404;49.308;12.178;2023-07-29T08:30:42;3.30;;;1.43;;
8735;SDS011;4404;49.308;12.178;2023-07-29T08:32:45;5.97;;;2.20;;
8735;SDS011;4404;49.308;12.178;2023-07-29T08:34:48;4.67;;;1.83;;
8735;SDS011;4404;49.308;12.178;2023-07-29T08:36:50;3.63;;;1.57;;
8735;SDS011;4404;49.308;12.178;2023-07-29T08:38:52;5.57;;;2.17;;
8735;SDS011;4404;49.308;12.178;2023-07-29T08:40:57;3.63;;;1.77;;
8735;SDS011;4404;49.308;12.178;2023-07-29T08:43:06;9.27;;;3.07;;
8735;SDS011;4404;49.308;12.178;2023-07-29T08:45:09;10.17;;;3.93;;
8735;SDS011;4404;49.308;12.178;2023-07-29T08:47:11;8.87;;;3.47;;
8735;SDS011;4404;49.308;12.178;2023-07-29T08:49:15;5.53;;;2.17;;
8735;SDS011;4404;49.308;12.178;2023-07-29T08:51:19;4.00;;;1.73;;
8735;SDS011;4404;49.308;12.178;2023-07-29T08:53:24;3.60;;;1.63;;
8735;SDS011;4404;49.308;12.178;2023-07-29T08:55:27;4.50;;;1.80;;
8735;SDS011;4404;49.308;12.178;2023-07-29T08:57:30;3.33;;;1.57;;
8735;SDS011;4404;49.308;12.178;2023-07-29T08:59:32;3.40;;;1.53;;
8735;SDS011;4404;49.308;12.178;2023-07-29T09:01:35;5.10;;;1.87;;
8735;SDS011;4404;49.308;12.178;2023-07-29T09:03:37;4.20;;;1.83;;
8735;SDS011;4404;49.308;12.178;2023-07-29T09:05:40;2.23;;;1.20;;
8735;SDS011;4404;49.308;12.178;2023-07-29T09:07:43;5.20;;;2.07;;
8735;SDS011;4404;49.308;12.178;2023-07-29T09:09:47;3.00;;;1.60;;
8735;SDS011;4404;49.308;12.178;2023-07-29T09:11:49;2.77;;;1.37;;
8735;SDS011;4404;49.308;12.178;2023-07-29T09:13:52;4.00;;;1.70;;
8735;SDS011;4404;49.308;12.178;2023-07-29T09:15:54;4.90;;;2.03;;
8735;SDS011;4404;49.308;12.178;2023-07-29T09:17:57;9.83;;;3.37;;
8735;SDS011;4404;49.308;12.178;2023-07-29T09:20:00;7.60;;;2.67;;
8735;SDS011;4404;49.308;12.178;2023-07-29T09:22:07;6.57;;;2.40;;
8735;SDS011;4404;49.308;12.178;2023-07-29T09:24:20;7.60;;;2.73;;
8735;SDS011;4404;49.308;12.178;2023-07-29T09:26:23;3.90;;;1.87;;
8735;SDS011;4404;49.308;12.178;2023-07-29T09:28:25;2.53;;;1.33;;
8735;SDS011;4404;49.308;12.178;2023-07-29T09:30:28;2.97;;;1.47;;
8735;SDS011;4404;49.308;12.178;2023-07-29T09:32:31;4.97;;;1.83;;
8735;SDS011;4404;49.308;12.178;2023-07-29T09:34:33;3.13;;;1.43;;
8735;SDS011;4404;49.308;12.178;2023-07-29T09:36:43;4.50;;;1.90;;
8735;SDS011;4404;49.308;12.178;2023-07-29T09:38:46;3.67;;;1.57;;
8735;SDS011;4404;49.308;12.178;2023-07-29T09:40:48;4.87;;;1.97;;
8735;SDS011;4404;49.308;12.178;2023-07-29T09:42:51;5.30;;;2.00;;
8735;SDS011;4404;49.308;12.178;2023-07-29T09:44:55;5.97;;;2.40;;
8735;SDS011;4404;49.308;12.178;2023-07-29T09:46:57;7.53;;;2.73;;
8735;SDS011;4404;49.308;12.178;2023-07-29T09:49:01;3.33;;;1.67;;
8735;SDS011;4404;49.308;12.178;2023-07-29T09:51:13;7.23;;;2.50;;
8735;SDS011;4404;49.308;12.178;2023-07-29T09:53:16;6.43;;;2.47;;
8735;SDS011;4404;49.308;12.178;2023-07-29T09:55:21;4.50;;;2.23;;
8735;SDS011;4404;49.308;12.178;2023-07-29T09:57:24;4.50;;;1.63;;
8735;SDS011;4404;49.308;12.178;2023-07-29T09:59:27;3.37;;;1.40;;
8735;SDS011;4404;49.308;12.178;2023-07-29T10:01:31;4.37;;;1.63;;
8735;SDS011;4404;49.308;12.178;2023-07-29T10:03:35;4.77;;;1.73;;
8735;SDS011;4404;49.308;12.178;2023-07-29T10:05:39;8.23;;;2.50;;
8735;SDS011;4404;49.308;12.178;2023-07-29T10:07:41;7.00;;;2.13;;
8735;SDS011;4404;49.308;12.178;2023-07-29T10:09:43;5.43;;;1.80;;
8735;SDS011;4404;49.308;12.178;2023-07-29T10:11:48;5.33;;;1.77;;
8735;SDS011;4404;49.308;12.178;2023-07-29T10:13:53;5.60;;;1.87;;
8735;SDS011;4404;49.308;12.178;2023-07-29T10:15:56;8.27;;;2.43;;
8735;SDS011;4404;49.308;12.178;2023-07-29T10:17:58;7.97;;;2.33;;
8735;SDS011;4404;49.308;12.178;2023-07-29T10:20:03;12.77;;;3.47;;
8735;SDS011;4404;49.308;12.178;2023-07-29T10:22:08;14.07;;;3.43;;
8735;SDS011;4404;49.308;12.178;2023-07-29T10:24:13;19.33;;;4.70;;
8735;SDS011;4404;49.308;12.178;2023-07-29T10:26:17;10.70;;;2.87;;
8735;SDS011;4404;49.308;12.178;2023-07-29T10:28:23;5.60;;;2.13;;
8735;SDS011;4404;49.308;12.178;2023-07-29T10:30:26;5.03;;;1.80;;
8735;SDS011;4404;49.308;12.178;2023-07-29T10:32:30;4.27;;;1.60;;
8735;SDS011;4404;49.308;12.178;2023-07-29T10:34:33;5.37;;;1.80;;
8735;SDS011;4404;49.308;12.178;2023-07-29T10:36:36;4.43;;;1.67;;
8735;SDS011;4404;49.308;12.178;2023-07-29T10:38:38;7.07;;;2.00;;
8735;SDS011;4404;49.308;12.178;2023-07-29T10:40:45;6.70;;;2.17;;
8735;SDS011;4404;49.308;12.178;2023-07-29T10:43:01;5.67;;;1.93;;
8735;SDS011;4404;49.308;12.178;2023-07-29T10:45:21;9.17;;;2.90;;
8735;SDS011;4404;49.308;12.178;2023-07-29T10:47:24;3.23;;;1.40;;
8735;SDS011;4404;49.308;12.178;2023-07-29T10:49:29;1.70;;;1.00;;
8735;SDS011;4404;49.308;12.178;2023-07-29T10:51:34;6.57;;;2.20;;
8735;SDS011;4404;49.308;12.178;2023-07-29T10:53:37;5.77;;;2.00;;
8735;SDS011;4404;49.308;12.178;2023-07-29T10:55:39;3.97;;;1.53;;
8735;SDS011;4404;49.308;12.178;2023-07-29T10:57:42;6.53;;;2.00;;
8735;SDS011;4404;49.308;12.178;2023-07-29T10:59:53;6.53;;;2.00;;
8735;SDS011;4404;49.308;12.178;2023-07-29T11:01:58;10.87;;;2.83;;
8735;SDS011;4404;49.308;12.178;2023-07-29T11:04:22;12.73;;;3.20;;
8735;SDS011;4404;49.308;12.178;2023-07-29T11:06:25;4.53;;;1.70;;
8735;SDS011;4404;49.308;12.178;2023-07-29T11:08:27;9.70;;;2.90;;
8735;SDS011;4404;49.308;12.178;2023-07-29T11:10:31;7.00;;;2.23;;
8735;SDS011;4404;49.308;12.178;2023-07-29T11:12:45;6.87;;;2.13;;
8735;SDS011;4404;49.308;12.178;2023-07-29T11:14:50;5.13;;;1.80;;
8735;SDS011;4404;49.308;12.178;2023-07-29T11:16:51;4.27;;;1.70;;
8735;SDS011;4404;49.308;12.178;2023-07-29T11:18:56;4.57;;;1.77;;
8735;SDS011;4404;49.308;12.178;2023-07-29T11:21:00;7.17;;;2.23;;
8735;SDS011;4404;49.308;12.178;2023-07-29T11:23:03;11.97;;;3.50;;
8735;SDS011;4404;49.308;12.178;2023-07-29T11:25:07;8.40;;;2.60;;
8735;SDS011;4404;49.308;12.178;2023-07-29T11:27:11;11.53;;;3.57;;
8735;SDS011;4404;49.308;12.178;2023-07-29T11:29:13;13.40;;;3.90;;
8735;SDS011;4404;49.308;12.178;2023-07-29T11:31:18;9.87;;;3.10;;
8735;SDS011;4404;49.308;12.178;2023-07-29T11:33:20;7.53;;;2.60;;
8735;SDS011;4404;49.308;12.178;2023-07-29T11:35:26;11.20;;;3.20;;
8735;SDS011;4404;49.308;12.178;2023-07-29T11:37:28;3.93;;;1.37;;
8735;SDS011;4404;49.308;12.178;2023-07-29T11:39:29;5.70;;;1.77;;
8735;SDS011;4404;49.308;12.178;2023-07-29T11:41:33;6.20;;;1.90;;
8735;SDS011;4404;49.308;12.178;2023-07-29T11:43:36;7.17;;;2.03;;
8735;SDS011;4404;49.308;12.178;2023-07-29T11:45:40;5.63;;;1.70;;
8735;SDS011;4404;49.308;12.178;2023-07-29T11:47:42;6.23;;;1.73;;
8735;SDS011;4404;49.308;12.178;2023-07-29T11:49:44;6.50;;;1.87;;
8735;SDS011;4404;49.308;12.178;2023-07-29T11:51:47;8.25;;;2.15;;
8735;SDS011;4404;49.308;12.178;2023-07-29T11:53:50;6.27;;;1.77;;
8735;SDS011;4404;49.308;12.178;2023-07-29T11:55:53;7.10;;;2.00;;
8735;SDS011;4404;49.308;12.178;2023-07-29T11:57:55;8.35;;;2.05;;
8735;SDS011;4404;49.308;12.178;2023-07-29T11:59:58;8.48;;;2.03;;
8735;SDS011;4404;49.308;12.178;2023-07-29T12:02:01;10.27;;;2.60;;
8735;SDS011;4404;49.308;12.178;2023-07-29T12:04:09;8.97;;;3.43;;
8735;SDS011;4404;49.308;12.178;2023-07-29T12:06:11;9.25;;;3.13;;
8735;SDS011;4404;49.308;12.178;2023-07-29T12:08:15;16.48;;;4.53;;
8735;SDS011;4404;49.308;12.178;2023-07-29T12:10:17;5.80;;;2.15;;
8735;SDS011;4404;49.308;12.178;2023-07-29T12:12:21;5.53;;;1.90;;
8735;SDS011;4404;49.308;12.178;2023-07-29T12:14:27;8.68;;;2.83;;
8735;SDS011;4404;49.308;12.178;2023-07-29T12:16:30;3.75;;;1.77;;
8735;SDS011;4404;49.308;12.178;2023-07-29T12:18:35;5.05;;;2.40;;
8735;SDS011;4404;49.308;12.178;2023-07-29T12:20:39;2.83;;;1.67;;
8735;SDS011;4404;49.308;12.178;2023-07-29T12:22:42;2.50;;;1.35;;
8735;SDS011;4404;49.308;12.178;2023-07-29T12:24:46;2.90;;;1.63;;
8735;SDS011;4404;49.308;12.178;2023-07-29T12:26:48;3.78;;;1.65;;
8735;SDS011;4404;49.308;12.178;2023-07-29T12:28:51;3.83;;;1.65;;
8735;SDS011;4404;49.308;12.178;2023-07-29T12:30:53;3.00;;;1.45;;
8735;SDS011;4404;49.308;12.178;2023-07-29T12:32:56;2.95;;;1.58;;
8735;SDS011;4404;49.308;12.178;2023-07-29T12:35:02;4.00;;;1.83;;
8735;SDS011;4404;49.308;12.178;2023-07-29T12:37:06;6.80;;;2.58;;
8735;SDS011;4404;49.308;12.178;2023-07-29T12:39:15;8.93;;;3.03;;
8735;SDS011;4404;49.308;12.178;2023-07-29T12:41:20;4.35;;;1.80;;
8735;SDS011;4404;49.308;12.178;2023-07-29T12:43:22;4.55;;;1.75;;
8735;SDS011;4404;49.308;12.178;2023-07-29T12:45:24;7.82;;;3.05;;
8735;SDS011;4404;49.308;12.178;2023-07-29T12:47:28;3.55;;;1.48;;
8735;SDS011;4404;49.308;12.178;2023-07-29T12:49:31;3.00;;;1.40;;
8735;SDS011;4404;49.308;12.178;2023-07-29T12:51:33;4.40;;;1.73;;
8735;SDS011;4404;49.308;12.178;2023-07-29T12:53:36;4.25;;;1.65;;
8735;SDS011;4404;49.308;12.178;2023-07-29T12:55:38;3.92;;;1.50;;
8735;SDS011;4404;49.308;12.178;2023-07-29T12:57:42;6.70;;;2.35;;
8735;SDS011;4404;49.308;12.178;2023-07-29T12:59:44;4.78;;;1.77;;
8735;SDS011;4404;49.308;12.178;2023-07-29T13:01:47;5.10;;;1.92;;
8735;SDS011;4404;49.308;12.178;2023-07-29T13:03:49;4.55;;;1.83;;
8735;SDS011;4404;49.308;12.178;2023-07-29T13:05:51;5.95;;;2.22;;
8735;SDS011;4404;49.308;12.178;2023-07-29T13:07:54;1.95;;;1.02;;
8735;SDS011;4404;49.308;12.178;2023-07-29T13:10:00;6.93;;;2.42;;
8735;SDS011;4404;49.308;12.178;2023-07-29T13:12:03;4.78;;;1.85;;
8735;SDS011;4404;49.308;12.178;2023-07-29T13:14:07;6.13;;;2.17;;
8735;SDS011;4404;49.308;12.178;2023-07-29T13:16:09;8.43;;;2.92;;
8735;SDS011;4404;49.308;12.178;2023-07-29T13:18:12;7.55;;;2.60;;
8735;SDS011;4404;49.308;12.178;2023-07-29T13:20:14;6.95;;;2.53;;
8735;SDS011;4404;49.308;12.178;2023-07-29T13:22:19;6.60;;;2.35;;
8735;SDS011;4404;49.308;12.178;2023-07-29T13:24:21;7.55;;;2.60;;
8735;SDS011;4404;49.308;12.178;2023-07-29T13:26:23;4.78;;;1.90;;
8735;SDS011;4404;49.308;12.178;2023-07-29T13:28:24;6.55;;;2.40;;
8735;SDS011;4404;49.308;12.178;2023-07-29T13:30:28;5.55;;;1.77;;
8735;SDS011;4404;49.308;12.178;2023-07-29T13:32:30;5.97;;;1.90;;
8735;SDS011;4404;49.308;12.178;2023-07-29T13:34:32;14.60;;;3.65;;
8735;SDS011;4404;49.308;12.178;2023-07-29T13:36:35;13.85;;;3.03;;
8735;SDS011;4404;49.308;12.178;2023-07-29T13:38:37;8.20;;;2.13;;
8735;SDS011;4404;49.308;12.178;2023-07-29T13:40:39;8.32;;;2.05;;
8735;SDS011;4404;49.308;12.178;2023-07-29T13:42:42;4.13;;;1.20;;
8735;SDS011;4404;49.308;12.178;2023-07-29T13:44:44;7.30;;;1.88;;
8735;SDS011;4404;49.308;12.178;2023-07-29T13:46:46;7.03;;;1.83;;
8735;SDS011;4404;49.308;12.178;2023-07-29T13:48:49;10.50;;;2.55;;
8735;SDS011;4404;49.308;12.178;2023-07-29T13:50:51;5.00;;;1.65;;
8735;SDS011;4404;49.308;12.178;2023-07-29T13:52:53;5.90;;;1.90;;
8735;SDS011;4404;49.308;12.178;2023-07-29T13:54:54;5.00;;;2.05;;
8735;SDS011;4404;49.308;12.178;2023-07-29T13:56:56;4.20;;;1.75;;
8735;SDS011;4404;49.308;12.178;2023-07-29T13:58:58;4.10;;;1.85;;
8735;SDS011;4404;49.308;12.178;2023-07-29T14:01:00;3.92;;;1.65;;
8735;SDS011;4404;49.308;12.178;2023-07-29T14:03:04;8.43;;;2.88;;
8735;SDS011;4404;49.308;12.178;2023-07-29T14:05:06;6.53;;;2.38;;
8735;SDS011;4404;49.308;12.178;2023-07-29T14:07:11;8.95;;;3.03;;
8735;SDS011;4404;49.308;12.178;2023-07-29T14:09:13;11.27;;;3.92;;
8735;SDS011;4404;49.308;12.178;2023-07-29T14:11:16;7.13;;;2.53;;
8735;SDS011;4404;49.308;12.178;2023-07-29T14:13:18;11.82;;;4.07;;
8735;SDS011;4404;49.308;12.178;2023-07-29T14:15:21;10.27;;;3.65;;
8735;SDS011;4404;49.308;12.178;2023-07-29T14:17:23;7.55;;;2.90;;
8735;SDS011;4404;49.308;12.178;2023-07-29T14:19:29;4.38;;;1.75;;
8735;SDS011;4404;49.308;12.178;2023-07-29T14:21:31;6.13;;;2.33;;
8735;SDS011;4404;49.308;12.178;2023-07-29T14:23:34;4.75;;;2.00;;
8735;SDS011;4404;49.308;12.178;2023-07-29T14:25:38;1.92;;;1.10;;
8735;SDS011;4404;49.308;12.178;2023-07-29T14:27:40;6.82;;;2.20;;
8735;SDS011;4404;49.308;12.178;2023-07-29T14:29:44;6.82;;;2.38;;
8735;SDS011;4404;49.308;12.178;2023-07-29T14:31:46;4.05;;;1.60;;
8735;SDS011;4404;49.308;12.178;2023-07-29T14:33:49;7.65;;;2.35;;
8735;SDS011;4404;49.308;12.178;2023-07-29T14:35:52;11.18;;;2.83;;
8735;SDS011;4404;49.308;12.178;2023-07-29T14:37:55;4.32;;;1.42;;
8735;SDS011;4404;49.308;12.178;2023-07-29T14:39:57;7.93;;;2.20;;
8735;SDS011;4404;49.308;12.178;2023-07-29T14:42:09;11.20;;;2.92;;
8735;SDS011;4404;49.308;12.178;2023-07-29T14:46:22;8.68;;;2.50;;
8735;SDS011;4404;49.308;12.178;2023-07-29T14:49:09;16.02;;;4.05;;
8735;SDS011;4404;49.308;12.178;2023-07-29T14:51:15;16.55;;;4.05;;
8735;SDS011;4404;49.308;12.178;2023-07-29T14:53:17;20.10;;;5.15;;
8735;SDS011;4404;49.308;12.178;2023-07-29T14:55:19;14.15;;;3.75;;
8735;SDS011;4404;49.308;12.178;2023-07-29T14:57:21;15.93;;;4.18;;
8735;SDS011;4404;49.308;12.178;2023-07-29T14:59:24;9.15;;;2.42;;
8735;SDS011;4404;49.308;12.178;2023-07-29T15:01:28;20.85;;;4.32;;
8735;SDS011;4404;49.308;12.178;2023-07-29T15:03:31;11.00;;;2.25;;
8735;SDS011;4404;49.308;12.178;2023-07-29T15:05:35;14.43;;;3.03;;
8735;SDS011;4404;49.308;12.178;2023-07-29T15:07:40;13.23;;;2.55;;
8735;SDS011;4404;49.308;12.178;2023-07-29T15:09:44;17.42;;;3.17;;
8735;SDS011;4404;49.308;12.178;2023-07-29T15:11:52;15.50;;;3.72;;
8735;SDS011;4404;49.308;12.178;2023-07-29T15:13:53;5.80;;;1.50;;
8735;SDS011;4404;49.308;12.178;2023-07-29T15:16:05;20.02;;;4.60;;
8735;SDS011;4404;49.308;12.178;2023-07-29T15:18:23;19.98;;;4.68;;
8735;SDS011;4404;49.308;12.178;2023-07-29T15:20:36;11.40;;;2.45;;
8735;SDS011;4404;49.308;12.178;2023-07-29T15:25:13;31.60;;;6.30;;
8735;SDS011;4404;49.308;12.178;2023-07-29T15:27:16;35.28;;;6.55;;
8735;SDS011;4404;49.308;12.178;2023-07-29T15:29:20;17.55;;;3.38;;
8735;SDS011;4404;49.308;12.178;2023-07-29T15:31:26;14.38;;;3.72;;
8735;SDS011;4404;49.308;12.178;2023-07-29T15:33:59;21.73;;;4.63;;
8735;SDS011;4404;49.308;12.178;2023-07-29T15:36:29;18.10;;;4.43;;
8735;SDS011;4404;49.308;12.178;2023-07-29T15:38:38;13.73;;;3.35;;
8735;SDS011;4404;49.308;12.178;2023-07-29T15:40:59;12.45;;;2.92;;
8735;SDS011;4404;49.308;12.178;2023-07-29T15:43:19;25.13;;;5.10;;
8735;SDS011;4404;49.308;12.178;2023-07-29T15:45:24;13.23;;;2.97;;
8735;SDS011;4404;49.308;12.178;2023-07-29T15:47:48;6.18;;;1.98;;
8735;SDS011;4404;49.308;12.178;2023-07-29T15:49:50;6.57;;;2.15;;
8735;SDS011;4404;49.308;12.178;2023-07-29T15:51:53;8.43;;;2.60;;
8735;SDS011;4404;49.308;12.178;2023-07-29T15:56:24;4.13;;;1.70;;
8735;SDS011;4404;49.308;12.178;2023-07-29T15:58:38;5.88;;;2.20;;
8735;SDS011;4404;49.308;12.178;2023-07-29T16:00:59;4.13;;;1.63;;
8735;SDS011;4404;49.308;12.178;2023-07-29T16:03:08;2.53;;;1.25;;
8735;SDS011;4404;49.308;12.178;2023-07-29T16:05:13;20.00;;;6.53;;
8735;SDS011;4404;49.308;12.178;2023-07-29T16:07:16;2.97;;;1.40;;
8735;SDS011;4404;49.308;12.178;2023-07-29T16:09:19;3.20;;;1.45;;
8735;SDS011;4404;49.308;12.178;2023-07-29T16:11:22;1.75;;;1.10;;
8735;SDS011;4404;49.308;12.178;2023-07-29T16:13:24;1.25;;;0.85;;
8735;SDS011;4404;49.308;12.178;2023-07-29T16:15:27;1.23;;;0.82;;
8735;SDS011;4404;49.308;12.178;2023-07-29T16:17:29;0.60;;;0.60;;
8735;SDS011;4404;49.308;12.178;2023-07-29T16:19:30;0.80;;;0.80;;
8735;SDS011;4404;49.308;12.178;2023-07-29T16:21:32;0.90;;;0.90;;
8735;SDS011;4404;49.308;12.178;2023-07-29T16:23:34;0.70;;;0.70;;
8735;SDS011;4404;49.308;12.178;2023-07-29T16:25:38;0.60;;;0.60;;
8735;SDS011;4404;49.308;12.178;2023-07-29T16:27:40;0.68;;;0.68;;
8735;SDS011;4404;49.308;12.178;2023-07-29T16:29:42;0.60;;;0.60;;
8735;SDS011;4404;49.308;12.178;2023-07-29T16:31:47;0.60;;;0.60;;
8735;SDS011;4404;49.308;12.178;2023-07-29T16:33:49;0.60;;;0.60;;
8735;SDS011;4404;49.308;12.178;2023-07-29T16:35:51;0.63;;;0.63;;
8735;SDS011;4404;49.308;12.178;2023-07-29T16:37:53;0.70;;;0.70;;
8735;SDS011;4404;49.308;12.178;2023-07-29T16:39:57;0.80;;;0.80;;
8735;SDS011;4404;49.308;12.178;2023-07-29T16:42:01;0.80;;;0.80;;
8735;SDS011;4404;49.308;12.178;2023-07-29T16:44:02;1.42;;;0.98;;
8735;SDS011;4404;49.308;12.178;2023-07-29T16:46:04;2.05;;;1.30;;
8735;SDS011;4404;49.308;12.178;2023-07-29T16:48:06;3.22;;;1.40;;
8735;SDS011;4404;49.308;12.178;2023-07-29T16:50:08;3.53;;;1.50;;
8735;SDS011;4404;49.308;12.178;2023-07-29T16:52:11;2.45;;;1.20;;
8735;SDS011;4404;49.308;12.178;2023-07-29T16:54:13;2.90;;;1.20;;
8735;SDS011;4404;49.308;12.178;2023-07-29T16:56:17;3.30;;;1.35;;
8735;SDS011;4404;49.308;12.178;2023-07-29T16:58:21;2.88;;;1.30;;
8735;SDS011;4404;49.308;12.178;2023-07-29T17:00:23;1.30;;;0.93;;
8735;SDS011;4404;49.308;12.178;2023-07-29T17:02:25;1.95;;;1.00;;
8735;SDS011;4404;49.308;12.178;2023-07-29T17:04:27;2.25;;;1.05;;
8735;SDS011;4404;49.308;12.178;2023-07-29T17:06:29;1.77;;;0.90;;
8735;SDS011;4404;49.308;12.178;2023-07-29T17:08:31;2.25;;;1.10;;
8735;SDS011;4404;49.308;12.178;2023-07-29T17:10:34;1.00;;;0.85;;
8735;SDS011;4404;49.308;12.178;2023-07-29T17:12:36;0.93;;;0.80;;
8735;SDS011;4404;49.308;12.178;2023-07-29T17:14:39;2.42;;;1.20;;
8735;SDS011;4404;49.308;12.178;2023-07-29T17:16:41;2.72;;;1.25;;
8735;SDS011;4404;49.308;12.178;2023-07-29T17:18:44;1.60;;;1.00;;
8735;SDS011;4404;49.308;12.178;2023-07-29T17:20:45;2.40;;;1.10;;
8735;SDS011;4404;49.308;12.178;2023-07-29T17:22:47;2.13;;;1.10;;
8735;SDS011;4404;49.308;12.178;2023-07-29T17:24:49;2.83;;;1.20;;
8735;SDS011;4404;49.308;12.178;2023-07-29T17:26:51;2.22;;;1.10;;
8735;SDS011;4404;49.308;12.178;2023-07-29T17:28:53;1.63;;;0.90;;
8735;SDS011;4404;49.308;12.178;2023-07-29T17:30:56;1.02;;;0.80;;
8735;SDS011;4404;49.308;12.178;2023-07-29T17:32:58;1.10;;;0.80;;
8735;SDS011;4404;49.308;12.178;2023-07-29T17:35:01;1.95;;;1.10;;
8735;SDS011;4404;49.308;12.178;2023-07-29T17:37:03;2.72;;;1.30;;
8735;SDS011;4404;49.308;12.178;2023-07-29T17:39:06;1.80;;;1.08;;
8735;SDS011;4404;49.308;12.178;2023-07-29T17:41:08;2.38;;;1.20;;
8735;SDS011;4404;49.308;12.178;2023-07-29T17:43:10;2.28;;;1.25;;
8735;SDS011;4404;49.308;12.178;2023-07-29T17:45:12;1.60;;;1.00;;
8735;SDS011;4404;49.308;12.178;2023-07-29T17:47:16;1.60;;;1.10;;
8735;SDS011;4404;49.308;12.178;2023-07-29T17:49:18;2.38;;;1.40;;
8735;SDS011;4404;49.308;12.178;2023-07-29T17:51:20;2.28;;;1.23;;
8735;SDS011;4404;49.308;12.178;2023-07-29T17:53:22;1.35;;;0.90;;
8735;SDS011;4404;49.308;12.178;2023-07-29T17:55:24;2.03;;;1.00;;
8735;SDS011;4404;49.308;12.178;2023-07-29T17:57:25;1.65;;;1.02;;
8735;SDS011;4404;49.308;12.178;2023-07-29T17:59:27;1.50;;;1.00;;
8735;SDS011;4404;49.308;12.178;2023-07-29T18:01:31;1.55;;;0.98;;
8735;SDS011;4404;49.308;12.178;2023-07-29T18:03:33;1.67;;;0.90;;
8735;SDS011;4404;49.308;12.178;2023-07-29T18:05:35;1.83;;;1.10;;
8735;SDS011;4404;49.308;12.178;2023-07-29T18:07:37;1.30;;;0.90;;
8735;SDS011;4404;49.308;12.178;2023-07-29T18:09:39;1.42;;;0.93;;
8735;SDS011;4404;49.308;12.178;2023-07-29T18:11:41;1.38;;;0.90;;
8735;SDS011;4404;49.308;12.178;2023-07-29T18:13:44;1.45;;;0.90;;